createdAt,value
2018-09-03T00:00:40.190Z,38.87
2018-09-03T00:03:10.767Z,53.90
2018-09-03T00:05:41.928Z,48.30
2018-09-03T00:08:12.496Z,59.03
2018-09-03T00:10:43.229Z,55.43
2018-09-03T00:13:14.062Z,49.77
2018-09-03T00:15:44.614Z,40.33
2018-09-03T00:18:15.063Z,60.27
2018-09-03T00:20:45.304Z,47.00
2018-09-03T00:23:15.959Z,45.90
2018-09-03T00:25:46.569Z,54.43
2018-09-03T00:28:17.284Z,57.17
2018-09-03T00:30:48.077Z,52.27
2018-09-03T00:33:23.829Z,52.47
2018-09-03T00:38:01.362Z,54.20
2018-09-03T00:40:36.958Z,51.07
2018-09-03T00:43:12.485Z,63.63
2018-09-03T00:45:47.924Z,42.87
2018-09-03T00:48:18.242Z,50.90
2018-09-03T00:50:48.799Z,49.83
2018-09-03T00:53:19.296Z,50.50
2018-09-03T00:55:49.636Z,40.53
2018-09-03T00:58:20.156Z,44.27
2018-09-03T01:00:50.793Z,53.30
2018-09-03T01:03:21.220Z,50.07
2018-09-03T01:05:51.951Z,46.90
2018-09-03T01:08:22.383Z,46.80
2018-09-03T01:10:52.833Z,49.37
2018-09-03T01:13:23.550Z,52.03
2018-09-03T01:15:54.100Z,46.50
2018-09-03T01:18:24.397Z,50.30
2018-09-03T01:20:54.959Z,49.30
2018-09-03T01:23:25.337Z,56.97
2018-09-03T01:25:56.116Z,53.10
2018-09-03T01:28:26.479Z,63.33
2018-09-03T01:30:57.331Z,70.60
2018-09-03T01:33:28.013Z,55.97
2018-09-03T01:35:58.436Z,69.87
2018-09-03T01:38:29.007Z,59.10
2018-09-03T01:40:59.796Z,57.47
2018-09-03T01:43:30.343Z,61.43
2018-09-03T01:46:00.913Z,60.47
2018-09-03T01:48:31.485Z,53.30
2018-09-03T01:51:02.469Z,54.53
2018-09-03T01:53:33.584Z,44.60
2018-09-03T01:56:04.402Z,71.10
2018-09-03T01:58:34.671Z,58.63
2018-09-03T02:01:05.072Z,50.50
2018-09-03T02:03:35.816Z,71.90
2018-09-03T02:06:06.573Z,73.90
2018-09-03T02:08:37.405Z,51.10
2018-09-03T02:11:07.746Z,43.40
2018-09-03T02:13:39.033Z,46.33
2018-09-03T02:16:09.498Z,48.67
2018-09-03T02:18:40.718Z,44.73
2018-09-03T02:21:11.452Z,52.27
2018-09-03T02:23:42.960Z,54.77
2018-09-03T02:26:13.612Z,52.63
2018-09-03T02:28:44.045Z,54.97
2018-09-03T02:31:14.583Z,49.47
2018-09-03T02:33:45.076Z,52.03
2018-09-03T02:36:15.596Z,46.70
2018-09-03T02:38:46.739Z,45.03
2018-09-03T02:41:16.847Z,42.57
2018-09-03T02:43:47.200Z,52.47
2018-09-03T02:46:18.050Z,40.60
2018-09-03T02:48:48.953Z,45.73
2018-09-03T02:51:19.475Z,45.07
2018-09-03T02:53:49.683Z,52.87
2018-09-03T02:56:20.689Z,35.80
2018-09-03T02:58:51.091Z,51.10
2018-09-03T03:01:21.739Z,47.27
2018-09-03T03:03:52.556Z,43.07
2018-09-03T03:06:23.103Z,42.57
2018-09-03T03:08:53.637Z,36.43
2018-09-03T03:11:24.401Z,51.00
2018-09-03T03:13:54.489Z,51.40
2018-09-03T03:16:25.114Z,53.20
2018-09-03T03:18:55.421Z,44.50
2018-09-03T03:21:25.874Z,48.90
2018-09-03T03:23:56.250Z,49.37
2018-09-03T03:26:27.795Z,45.50
2018-09-03T03:28:58.185Z,56.70
2018-09-03T03:31:28.326Z,38.40
2018-09-03T03:33:58.419Z,39.63
2018-09-03T03:36:29.136Z,34.57
2018-09-03T03:38:59.499Z,45.97
2018-09-03T03:41:29.892Z,39.57
2018-09-03T03:44:00.279Z,47.97
2018-09-03T03:46:31.228Z,47.67
2018-09-03T03:49:01.747Z,33.23
2018-09-03T03:51:32.046Z,33.00
2018-09-03T03:54:02.108Z,40.03
2018-09-03T03:56:32.639Z,36.93
2018-09-03T03:59:03.183Z,38.90
2018-09-03T04:01:33.377Z,34.93
2018-09-03T04:04:03.800Z,31.47
2018-09-03T04:06:35.241Z,41.47
2018-09-03T04:09:07.958Z,42.00
2018-09-03T04:11:38.598Z,41.37
2018-09-03T04:14:09.403Z,40.20
2018-09-03T04:16:39.815Z,32.70
2018-09-03T04:19:10.204Z,37.67
2018-09-03T04:21:40.801Z,30.23
2018-09-03T04:24:11.360Z,29.40
2018-09-03T04:26:41.840Z,29.53
2018-09-03T04:29:12.153Z,40.00
2018-09-03T04:31:42.553Z,30.90
2018-09-03T04:34:13.336Z,37.20
2018-09-03T04:36:44.070Z,29.27
2018-09-03T04:39:14.487Z,28.53
2018-09-03T04:41:45.266Z,28.97
2018-09-03T04:44:15.828Z,20.97
2018-09-03T04:46:46.603Z,32.90
2018-09-03T04:49:17.451Z,30.03
2018-09-03T04:51:47.902Z,26.63
2018-09-03T04:54:18.419Z,29.07
2018-09-03T04:56:48.919Z,32.23
2018-09-03T04:59:19.203Z,31.03
2018-09-03T05:01:49.564Z,31.03
2018-09-03T05:04:20.357Z,34.50
2018-09-03T05:06:51.162Z,36.87
2018-09-03T05:09:21.692Z,34.90
2018-09-03T05:11:52.539Z,31.47
2018-09-03T05:14:23.067Z,31.77
2018-09-03T05:16:53.624Z,25.37
2018-09-03T05:19:23.802Z,35.63
2018-09-03T05:21:55.013Z,31.63
2018-09-03T05:24:25.231Z,24.87
2018-09-03T05:26:56.233Z,32.37
2018-09-03T05:29:26.847Z,32.80
2018-09-03T05:31:57.379Z,32.97
2018-09-03T05:34:27.679Z,29.37
2018-09-03T05:36:58.575Z,28.10
2018-09-03T05:39:29.079Z,25.20
2018-09-03T05:41:59.364Z,23.07
2018-09-03T05:44:29.889Z,23.00
2018-09-03T05:47:00.545Z,21.83
2018-09-03T05:49:31.058Z,18.03
2018-09-03T05:52:01.679Z,17.60
2018-09-03T05:54:32.274Z,19.83
2018-09-03T05:57:03.182Z,19.30
2018-09-03T05:59:33.481Z,18.90
2018-09-03T06:02:04.266Z,16.47
2018-09-03T06:04:34.937Z,12.83
2018-09-03T06:07:05.910Z,15.67
2018-09-03T06:09:37.184Z,17.63
2018-09-03T06:12:07.791Z,16.03
2018-09-03T06:14:37.985Z,16.40
2018-09-03T06:17:08.655Z,14.87
2018-09-03T06:19:39.242Z,16.07
2018-09-03T06:22:10.132Z,16.87
2018-09-03T06:24:40.916Z,16.47
2018-09-03T06:27:11.887Z,15.97
2018-09-03T06:29:42.609Z,15.67
2018-09-03T06:32:12.992Z,15.53
2018-09-03T06:34:43.492Z,15.20
2018-09-03T06:37:14.397Z,15.60
2018-09-03T06:39:44.488Z,13.60
2018-09-03T06:42:14.676Z,15.93
2018-09-03T06:44:44.782Z,15.33
2018-09-03T06:47:15.280Z,17.53
2018-09-03T06:49:45.543Z,13.33
2018-09-03T06:52:15.738Z,11.77
2018-09-03T06:54:46.150Z,13.20
2018-09-03T06:57:16.464Z,12.50
2018-09-03T06:59:46.586Z,12.63
2018-09-03T07:02:17.350Z,11.80
2018-09-03T07:04:47.924Z,11.17
2018-09-03T07:07:18.202Z,12.40
2018-09-03T07:09:48.370Z,15.10
2018-09-03T07:12:19.084Z,16.33
2018-09-03T07:14:49.490Z,15.47
2018-09-03T07:17:19.647Z,13.57
2018-09-03T07:19:49.760Z,14.30
2018-09-03T07:22:19.843Z,13.73
2018-09-03T07:24:50.840Z,15.13
2018-09-03T07:27:21.927Z,14.80
2018-09-03T07:29:52.857Z,14.40
2018-09-03T07:32:23.269Z,13.70
2018-09-03T07:34:53.373Z,14.13
2018-09-03T07:37:23.551Z,13.62
2018-09-03T07:39:54.476Z,13.32
2018-09-03T07:42:25.206Z,12.05
2018-09-03T07:44:56.216Z,10.00
2018-09-03T07:47:26.899Z,11.78
2018-09-03T07:49:57.829Z,9.98
2018-09-03T07:52:28.890Z,8.65
2018-09-03T07:54:59.899Z,10.10
2018-09-03T07:57:30.967Z,9.40
2018-09-03T08:00:02.423Z,9.20
2018-09-03T08:02:33.396Z,10.75
2018-09-03T08:05:04.215Z,8.93
2018-09-03T08:07:35.325Z,9.95
2018-09-03T08:10:07.716Z,9.55
2018-09-03T08:12:38.566Z,9.50
2018-09-03T08:15:09.636Z,10.15
2018-09-03T08:17:40.605Z,10.00
2018-09-03T08:20:11.867Z,10.00
2018-09-03T08:22:42.722Z,9.58
2018-09-03T08:25:13.469Z,9.38
2018-09-03T08:27:44.074Z,8.93
2018-09-03T08:30:15.356Z,9.88
2018-09-03T08:32:46.343Z,10.25
2018-09-03T08:35:17.275Z,9.78
2018-09-03T08:37:48.165Z,9.83
2018-09-03T08:40:19.384Z,8.08
2018-09-03T08:42:50.354Z,8.80
2018-09-03T08:45:21.541Z,7.60
2018-09-03T08:47:52.603Z,7.67
2018-09-03T08:50:23.456Z,7.10
2018-09-03T08:52:55.057Z,6.03
2018-09-03T08:55:26.404Z,8.03
2018-09-03T08:57:58.657Z,7.78
2018-09-03T09:00:29.781Z,6.97
2018-09-03T09:03:02.683Z,7.65
2018-09-03T09:05:33.384Z,7.10
2018-09-03T09:08:04.286Z,7.50
2018-09-03T09:10:35.308Z,7.28
2018-09-03T09:13:06.420Z,6.65
2018-09-03T09:15:37.281Z,7.12
2018-09-03T09:18:07.942Z,6.87
2018-09-03T09:20:38.629Z,7.62
2018-09-03T09:23:09.516Z,8.48
2018-09-03T09:25:40.233Z,9.48
2018-09-03T09:28:11.046Z,9.70
2018-09-03T09:30:41.952Z,10.10
2018-09-03T09:33:12.658Z,11.03
2018-09-03T09:35:43.653Z,10.03
2018-09-03T09:38:14.873Z,10.05
2018-09-03T09:40:45.818Z,11.08
2018-09-03T09:43:16.525Z,10.35
2018-09-03T09:45:47.372Z,9.90
2018-09-03T09:48:18.137Z,9.28
2018-09-03T09:50:48.695Z,8.40
2018-09-03T09:53:19.571Z,8.45
2018-09-03T09:55:50.169Z,7.83
2018-09-03T09:58:20.923Z,8.28
2018-09-03T10:00:56.797Z,7.80
2018-09-03T10:03:27.298Z,8.25
2018-09-03T10:05:57.865Z,7.75
2018-09-03T10:08:28.704Z,8.18
2018-09-03T10:10:59.250Z,8.30
2018-09-03T10:13:29.935Z,6.95
2018-09-03T10:16:00.456Z,8.55
2018-09-03T10:18:31.198Z,8.43
2018-09-03T10:21:01.785Z,8.23
2018-09-03T10:23:32.663Z,7.37
2018-09-03T10:26:03.363Z,7.72
2018-09-03T10:28:34.230Z,7.87
2018-09-03T10:31:04.769Z,8.35
2018-09-03T10:33:35.426Z,7.60
2018-09-03T10:36:06.460Z,7.25
2018-09-03T10:38:37.102Z,7.22
2018-09-03T10:41:07.697Z,7.55
2018-09-03T10:43:38.728Z,8.08
2018-09-03T10:46:09.465Z,7.97
2018-09-03T10:48:40.769Z,8.38
2018-09-03T10:51:11.561Z,7.97
2018-09-03T10:53:42.335Z,7.55
2018-09-03T10:56:13.031Z,8.70
2018-09-03T10:58:44.226Z,7.33
2018-09-03T11:01:15.037Z,8.48
2018-09-03T11:03:45.796Z,9.05
2018-09-03T11:06:16.657Z,8.45
2018-09-03T11:08:47.316Z,8.25
2018-09-03T11:11:17.959Z,7.60
2018-09-03T11:13:48.527Z,7.45
2018-09-03T11:16:19.188Z,7.03
2018-09-03T11:18:50.371Z,7.70
2018-09-03T11:21:21.060Z,7.65
2018-09-03T11:23:51.820Z,7.47
2018-09-03T11:26:22.485Z,7.05
2018-09-03T11:28:53.141Z,7.35
2018-09-03T11:31:23.813Z,7.22
2018-09-03T11:33:55.293Z,8.38
2018-09-03T11:36:26.074Z,8.03
2018-09-03T11:38:57.124Z,7.70
2018-09-03T11:41:28.179Z,8.30
2018-09-03T11:43:58.884Z,6.30
2018-09-03T11:46:29.562Z,7.50
2018-09-03T11:49:00.259Z,6.97
2018-09-03T11:51:31.277Z,6.87
2018-09-03T11:54:02.084Z,7.60
2018-09-03T11:56:32.862Z,6.70
2018-09-03T11:59:04.281Z,7.15
2018-09-03T12:01:35.044Z,5.97
2018-09-03T12:04:05.988Z,6.05
2018-09-03T12:06:37.080Z,6.15
2018-09-03T12:09:10.453Z,6.35
2018-09-03T12:11:41.604Z,6.03
2018-09-03T12:14:17.061Z,5.50
2018-09-03T12:16:47.800Z,5.62
2018-09-03T12:19:18.474Z,5.67
2018-09-03T12:21:49.442Z,5.45
2018-09-03T12:24:20.447Z,6.15
2018-09-03T12:26:51.543Z,6.80
2018-09-03T12:29:22.332Z,6.47
2018-09-03T12:31:53.588Z,6.10
2018-09-03T12:34:24.230Z,6.05
2018-09-03T12:36:55.047Z,5.50
2018-09-03T12:39:26.596Z,6.35
2018-09-03T12:41:57.469Z,6.20
2018-09-03T12:44:28.684Z,5.40
2018-09-03T12:46:59.732Z,5.53
2018-09-03T12:49:30.732Z,5.65
2018-09-03T12:52:03.403Z,6.30
2018-09-03T12:54:34.359Z,6.25
2018-09-03T12:57:05.394Z,6.28
2018-09-03T12:59:36.127Z,5.87
2018-09-03T13:02:07.013Z,4.87
2018-09-03T13:04:37.759Z,4.70
2018-09-03T13:07:08.551Z,4.97
2018-09-03T13:09:39.337Z,4.72
2018-09-03T13:12:10.108Z,5.35
2018-09-03T13:14:40.840Z,5.00
2018-09-03T13:17:11.689Z,5.72
2018-09-03T13:19:42.995Z,4.67
2018-09-03T13:22:14.148Z,4.78
2018-09-03T13:24:45.148Z,4.87
2018-09-03T13:27:16.048Z,4.65
2018-09-03T13:29:46.900Z,4.53
2018-09-03T13:32:17.605Z,4.22
2018-09-03T13:34:48.346Z,4.33
2018-09-03T13:37:19.184Z,4.80
2018-09-03T13:39:50.242Z,4.05
2018-09-03T13:42:21.018Z,4.75
2018-09-03T13:44:51.864Z,3.98
2018-09-03T13:47:22.837Z,4.05
2018-09-03T13:49:53.558Z,4.80
2018-09-03T13:52:24.133Z,4.55
2018-09-03T13:54:55.442Z,4.50
2018-09-03T13:57:26.354Z,4.10
2018-09-03T13:59:56.971Z,3.70
2018-09-03T14:02:27.571Z,3.90
2018-09-03T14:04:58.365Z,3.42
2018-09-03T14:07:29.429Z,3.30
2018-09-03T14:10:00.459Z,3.80
2018-09-03T14:12:31.346Z,3.60
2018-09-03T14:15:02.253Z,3.47
2018-09-03T14:17:33.249Z,3.55
2018-09-03T14:20:04.652Z,3.70
2018-09-03T14:22:35.490Z,3.95
2018-09-03T14:25:06.251Z,3.27
2018-09-03T14:27:36.799Z,3.30
2018-09-03T14:30:08.159Z,3.52
2018-09-03T14:32:39.015Z,3.30
2018-09-03T14:35:09.919Z,3.40
2018-09-03T14:37:40.614Z,3.50
2018-09-03T14:40:11.500Z,3.30
2018-09-03T14:42:42.327Z,3.40
2018-09-03T14:45:13.460Z,3.58
2018-09-03T14:47:44.357Z,3.30
2018-09-03T14:50:15.039Z,3.60
2018-09-03T14:52:46.125Z,3.20
2018-09-03T14:55:16.738Z,3.40
2018-09-03T14:57:47.547Z,2.90
2018-09-03T15:00:18.757Z,2.80
2018-09-03T15:02:49.610Z,3.20
2018-09-03T15:05:20.676Z,2.83
2018-09-03T15:07:51.350Z,3.65
2018-09-03T15:10:22.572Z,3.70
2018-09-03T15:12:53.199Z,3.20
2018-09-03T15:15:23.896Z,3.47
2018-09-03T15:17:54.524Z,3.17
2018-09-03T15:20:25.314Z,3.45
2018-09-03T15:22:56.306Z,3.52
2018-09-03T15:25:27.230Z,3.05
2018-09-03T15:27:58.274Z,3.80
2018-09-03T15:30:29.346Z,3.77
2018-09-03T15:33:00.065Z,3.95
2018-09-03T15:35:30.825Z,3.58
2018-09-03T15:38:01.689Z,4.28
2018-09-03T15:40:32.771Z,4.22
2018-09-03T15:43:03.539Z,4.37
2018-09-03T15:45:34.491Z,4.40
2018-09-03T15:48:05.522Z,3.77
2018-09-03T15:50:36.325Z,3.90
2018-09-03T15:53:07.057Z,3.42
2018-09-03T15:55:37.791Z,3.83
2018-09-03T15:58:08.462Z,3.80
2018-09-03T16:00:39.192Z,3.67
2018-09-03T16:03:10.202Z,3.37
2018-09-03T16:05:41.057Z,3.95
2018-09-03T16:08:12.010Z,4.03
2018-09-03T16:10:42.597Z,3.95
2018-09-03T16:13:13.585Z,3.67
2018-09-03T16:15:44.481Z,3.65
2018-09-03T16:18:15.121Z,3.70
2018-09-03T16:20:46.248Z,3.40
2018-09-03T16:23:17.162Z,3.47
2018-09-03T16:25:47.848Z,4.00
2018-09-03T16:28:18.601Z,3.33
2018-09-03T16:30:49.243Z,3.52
2018-09-03T16:33:20.305Z,3.45
2018-09-03T16:35:51.248Z,3.50
2018-09-03T16:38:22.272Z,3.50
2018-09-03T16:40:53.539Z,3.27
2018-09-03T16:43:24.121Z,3.52
2018-09-03T16:45:55.029Z,3.40
2018-09-03T16:48:26.038Z,3.22
2018-09-03T16:50:56.717Z,3.33
2018-09-03T16:53:27.536Z,3.60
2018-09-03T16:55:58.255Z,3.90
2018-09-03T16:58:29.073Z,3.83
2018-09-03T17:01:00.071Z,3.80
2018-09-03T17:03:30.435Z,3.77
2018-09-03T17:06:01.155Z,3.72
2018-09-03T17:08:31.914Z,3.67
2018-09-03T17:11:03.048Z,4.03
2018-09-03T17:13:33.738Z,3.55
2018-09-03T17:16:04.205Z,3.50
2018-09-03T17:18:35.473Z,3.58
2018-09-03T17:21:07.145Z,3.90
2018-09-03T17:23:37.441Z,3.70
2018-09-03T17:26:08.219Z,3.50
2018-09-03T17:28:38.438Z,3.95
2018-09-03T17:31:09.137Z,3.97
2018-09-03T17:33:39.172Z,3.70
2018-09-03T17:36:09.496Z,3.70
2018-09-03T17:38:40.006Z,4.87
2018-09-03T17:41:10.388Z,3.77
2018-09-03T17:43:40.596Z,4.07
2018-09-03T17:46:10.701Z,4.17
2018-09-03T17:48:40.833Z,4.50
2018-09-03T17:51:11.350Z,3.90
2018-09-03T17:53:41.616Z,4.27
2018-09-03T17:56:11.959Z,3.77
2018-09-03T17:58:42.440Z,4.30
2018-09-03T18:01:12.913Z,4.47
2018-09-03T18:03:43.150Z,3.90
2018-09-03T18:06:13.973Z,3.80
2018-09-03T18:08:44.260Z,4.23
2018-09-03T18:11:14.849Z,4.00
2018-09-03T18:13:45.327Z,4.23
2018-09-03T18:16:15.482Z,4.30
2018-09-03T18:18:46.435Z,4.13
2018-09-03T18:21:16.883Z,4.10
2018-09-03T18:23:47.024Z,3.83
2018-09-03T18:26:17.593Z,4.00
2018-09-03T18:28:48.411Z,4.63
2018-09-03T18:31:18.966Z,4.17
2018-09-03T18:33:49.903Z,4.43
2018-09-03T18:36:20.048Z,4.60
2018-09-03T18:38:50.507Z,4.93
2018-09-03T18:41:20.938Z,4.70
2018-09-03T18:43:51.672Z,4.70
2018-09-03T18:46:22.268Z,6.17
2018-09-03T18:48:53.093Z,5.37
2018-09-03T18:51:23.311Z,6.17
2018-09-03T18:53:53.687Z,5.17
2018-09-03T18:56:23.946Z,6.40
2018-09-03T18:58:54.255Z,5.03
2018-09-03T19:01:24.916Z,6.03
2018-09-03T19:03:55.230Z,6.97
2018-09-03T19:06:25.498Z,7.47
2018-09-03T19:08:55.886Z,7.40
2018-09-03T19:11:26.534Z,5.97
2018-09-03T19:13:56.971Z,7.17
2018-09-03T19:16:27.535Z,6.70
2018-09-03T19:18:58.147Z,8.03
2018-09-03T19:21:28.890Z,8.03
2018-09-03T19:23:59.363Z,7.10
2018-09-03T19:26:29.930Z,7.57
2018-09-03T19:29:01.091Z,7.90
2018-09-03T19:31:31.596Z,7.73
2018-09-03T19:34:02.446Z,6.77
2018-09-03T19:36:33.085Z,7.40
2018-09-03T19:39:04.882Z,7.27
2018-09-03T19:41:35.591Z,7.20
2018-09-03T19:44:06.140Z,7.67
2018-09-03T19:46:36.419Z,7.77
2018-09-03T19:49:06.958Z,8.27
2018-09-03T19:51:37.689Z,8.10
2018-09-03T19:54:08.063Z,9.17
2018-09-03T19:56:38.814Z,9.03
2018-09-03T19:59:09.037Z,7.53
2018-09-03T20:01:40.983Z,7.77
2018-09-03T20:04:11.568Z,8.23
2018-09-03T20:06:41.778Z,7.23
2018-09-03T20:09:12.194Z,9.47
2018-09-03T20:11:42.885Z,8.60
2018-09-03T20:14:14.049Z,8.20
2018-09-03T20:16:44.234Z,9.90
2018-09-03T20:19:16.184Z,9.53
2018-09-03T20:21:46.454Z,10.60
2018-09-03T20:24:16.657Z,9.60
2018-09-03T20:26:47.519Z,10.30
2018-09-03T20:29:17.794Z,9.20
2018-09-03T20:31:48.733Z,8.90
2018-09-03T20:34:19.198Z,9.77
2018-09-03T20:36:49.424Z,9.07
2018-09-03T20:39:19.494Z,8.33
2018-09-03T20:41:49.891Z,7.93
2018-09-03T20:44:20.117Z,8.00
2018-09-03T20:46:50.542Z,8.03
2018-09-03T20:49:20.675Z,9.60
2018-09-03T20:51:50.931Z,12.60
2018-09-03T20:54:21.453Z,11.43
2018-09-03T20:56:51.592Z,8.37
2018-09-03T20:59:22.150Z,8.73
2018-09-03T21:01:52.900Z,10.57
2018-09-03T21:04:23.981Z,8.80
2018-09-03T21:06:54.194Z,8.07
2018-09-03T21:09:24.748Z,8.77
2018-09-03T21:11:55.183Z,8.93
2018-09-03T21:14:25.727Z,8.73
2018-09-03T21:16:56.278Z,9.87
2018-09-03T21:19:26.753Z,10.17
2018-09-03T21:21:56.926Z,10.03
2018-09-03T21:24:27.487Z,10.67
2018-09-03T21:26:57.795Z,9.70
2018-09-03T21:29:28.062Z,9.80
2018-09-03T21:31:58.270Z,10.00
2018-09-03T21:34:28.463Z,10.73
2018-09-03T21:36:58.590Z,11.87
2018-09-03T21:39:29.424Z,11.23
2018-09-03T21:41:59.696Z,11.20
2018-09-03T21:44:30.078Z,10.53
2018-09-03T21:47:00.299Z,10.73
2018-09-03T21:49:30.873Z,10.17
2018-09-03T21:52:00.990Z,10.93
2018-09-03T21:54:31.545Z,11.87
2018-09-03T21:57:01.986Z,10.37
2018-09-03T21:59:32.612Z,9.83
2018-09-03T22:02:07.775Z,11.30
2018-09-03T22:04:41.816Z,12.37
2018-09-03T22:07:12.541Z,12.63
2018-09-03T22:09:43.239Z,12.10
2018-09-03T22:12:13.955Z,10.83
2018-09-03T22:14:44.109Z,11.63
2018-09-03T22:17:14.314Z,13.17
2018-09-03T22:19:44.604Z,12.10
2018-09-03T22:22:15.253Z,12.17
2018-09-03T22:24:45.488Z,12.40
2018-09-03T22:27:15.709Z,12.93
2018-09-03T22:29:46.039Z,13.70
2018-09-03T22:32:16.307Z,13.37
2018-09-03T22:34:46.619Z,14.47
2018-09-03T22:37:17.314Z,15.67
2018-09-03T22:39:47.770Z,17.90
2018-09-03T22:42:19.164Z,14.07
2018-09-03T22:44:50.200Z,13.20
2018-09-03T22:47:20.591Z,17.73
2018-09-03T22:49:51.193Z,16.30
2018-09-03T22:52:21.682Z,13.57
2018-09-03T22:54:52.149Z,11.33
2018-09-03T22:57:22.554Z,10.13
2018-09-03T22:59:52.740Z,9.70
2018-09-03T23:02:23.038Z,10.33
2018-09-03T23:04:53.372Z,9.93
2018-09-03T23:07:23.891Z,12.30
2018-09-03T23:09:54.093Z,11.90
2018-09-03T23:12:24.596Z,9.67
2018-09-03T23:14:55.526Z,10.13
2018-09-03T23:17:25.891Z,10.20
2018-09-03T23:19:56.117Z,9.40
2018-09-03T23:22:26.850Z,11.53
2018-09-03T23:24:57.009Z,12.83
2018-09-03T23:27:27.166Z,11.93
2018-09-03T23:29:57.877Z,13.60
2018-09-03T23:32:28.739Z,14.40
2018-09-03T23:34:58.856Z,14.03
2018-09-03T23:37:28.966Z,12.67
2018-09-03T23:39:59.035Z,10.80
2018-09-03T23:42:29.412Z,9.47
2018-09-03T23:44:59.708Z,14.03
2018-09-03T23:47:29.923Z,10.97
2018-09-03T23:50:00.360Z,13.63
2018-09-03T23:52:30.699Z,12.50
2018-09-03T23:55:00.787Z,14.27
2018-09-03T23:57:30.920Z,9.43
